Main page
METAR-TAF:

METAR-TAF

Airports :

Oil platform

Heimdal, Norway

latitude: 59-34-12N, longitude: 2-13-48E, elevation: 10 m

Current weather observation

The report was made 43 minutes ago, at 07:20 UTC
Wind 21 kt from the South/Southwest
Temperature 6°C
Humidity 87%
Pressure 1011 hPa
Visibility 10 km or more
Few clouds at a height of 1500 ft
Scattered clouds at a height of 4000 ft

METAR: ENHM 200720Z 21021KT 9999 FEW015 SCT040 06/04 Q1011 W08/S4

Time: 09:03 (08:03 UTC)

Forecast

The report was made 18 hours and 47 minutes ago, at 13:16 UTC
Forecast valid from 19 at 13 UTC to 19 at 18 UTC
Wind 9 kt from the South
Visibility 10 km or more
Few clouds at a height of 2500 ft
Scattered clouds at a height of 3500 ft
Probability 30% :
Temporary
from 19 at 13 UTC to 19 at 18 UTC
Broken clouds at a height of 1200 ft
Scattered clouds at a height of 2000 ft, Cumulonimbus.
rain showers

TAF: ENHM 191316Z 1913/1918 18009KT 9999 FEW025 SCT035 PROB30 TEMPO 1913/1918 SHRA BKN012 SCT020CB

Weather observations and forecasts of more than 4000 airports (METAR and TAF reports).

The available stations are represented by yellow and red dots on the map.

Hover mouse over dot to see the name of the station.

Then click to see weather observations and forecasts.

To change the map : click on the green buttons with a black cross to zoom in, on the green button with a dash to zoom out, or on the green arrows for adjacent maps.


METAR-TAF: